Rollinsford, New Hampshire
Current Conditions -  °F | °C
As of 4:51 AM on Friday 31 Oct 2014 (Local Time) from KDAW Reporting Station
Overcast Overcast  
Wind Chill: 40°   Ceiling: 4900
Heat Index: 40°   Visibility: 10mi
Dew Point: 34°   Wind: 0mph
Humidity: 79%   Direction: NA
Pressure: 30.02"   Gusts: NA
Location:  43.24°N, 70.82°W
Report Text: KDAW 310851Z AUTO 00000KT 10SM OVC049 04/01 A3002 RMK AO2 SLP163 T00440011 53002
Loading
Personal Weather Stations






























Interactive Weather Map
Tropical Storm Tracking
New forecast layout! Learn more

10-Day Weather Forecast

Advertisements
Track Severe Weather on mobile